sensor_id;sensor_type;location;lat;lon;timestamp;P1;durP1;ratioP1;P2;durP2;ratioP2
1885;SDS011;943;51.568;6.998;2023-02-01T00:01:20;18.03;;;7.97;;
1885;SDS011;943;51.568;6.998;2023-02-01T00:03:47;17.57;;;8.50;;
1885;SDS011;943;51.568;6.998;2023-02-01T00:06:15;18.57;;;7.60;;
1885;SDS011;943;51.568;6.998;2023-02-01T00:08:43;16.67;;;7.47;;
1885;SDS011;943;51.568;6.998;2023-02-01T00:11:11;18.67;;;7.70;;
1885;SDS011;943;51.568;6.998;2023-02-01T00:13:41;14.00;;;7.00;;
1885;SDS011;943;51.568;6.998;2023-02-01T00:18:46;16.93;;;5.63;;
1885;SDS011;943;51.568;6.998;2023-02-01T00:21:19;16.33;;;6.50;;
1885;SDS011;943;51.568;6.998;2023-02-01T00:23:48;26.23;;;7.27;;
1885;SDS011;943;51.568;6.998;2023-02-01T00:26:17;15.30;;;6.07;;
1885;SDS011;943;51.568;6.998;2023-02-01T00:29:14;13.03;;;5.20;;
1885;SDS011;943;51.568;6.998;2023-02-01T00:31:48;12.73;;;5.70;;
1885;SDS011;943;51.568;6.998;2023-02-01T00:34:18;24.10;;;6.00;;
1885;SDS011;943;51.568;6.998;2023-02-01T00:36:47;15.33;;;5.80;;
1885;SDS011;943;51.568;6.998;2023-02-01T00:39:14;21.30;;;5.50;;
1885;SDS011;943;51.568;6.998;2023-02-01T00:41:44;15.03;;;5.20;;
1885;SDS011;943;51.568;6.998;2023-02-01T00:44:11;15.20;;;5.20;;
1885;SDS011;943;51.568;6.998;2023-02-01T00:46:39;11.77;;;4.77;;
1885;SDS011;943;51.568;6.998;2023-02-01T00:49:07;15.00;;;4.33;;
1885;SDS011;943;51.568;6.998;2023-02-01T00:51:35;17.73;;;4.10;;
1885;SDS011;943;51.568;6.998;2023-02-01T00:54:03;13.43;;;5.20;;
1885;SDS011;943;51.568;6.998;2023-02-01T00:56:31;12.50;;;4.50;;
1885;SDS011;943;51.568;6.998;2023-02-01T00:58:58;15.67;;;4.43;;
1885;SDS011;943;51.568;6.998;2023-02-01T01:01:26;14.93;;;4.80;;
1885;SDS011;943;51.568;6.998;2023-02-01T01:03:56;17.30;;;5.47;;
1885;SDS011;943;51.568;6.998;2023-02-01T01:06:27;16.07;;;4.30;;
1885;SDS011;943;51.568;6.998;2023-02-01T01:09:00;11.83;;;5.00;;
1885;SDS011;943;51.568;6.998;2023-02-01T01:11:35;15.10;;;5.13;;
1885;SDS011;943;51.568;6.998;2023-02-01T01:14:06;16.70;;;5.57;;
1885;SDS011;943;51.568;6.998;2023-02-01T01:16:37;10.97;;;3.97;;
1885;SDS011;943;51.568;6.998;2023-02-01T01:19:05;19.13;;;4.53;;
1885;SDS011;943;51.568;6.998;2023-02-01T01:21:33;14.80;;;4.70;;
1885;SDS011;943;51.568;6.998;2023-02-01T01:24:00;17.03;;;5.43;;
1885;SDS011;943;51.568;6.998;2023-02-01T01:26:28;15.60;;;4.67;;
1885;SDS011;943;51.568;6.998;2023-02-01T01:28:58;9.90;;;4.00;;
1885;SDS011;943;51.568;6.998;2023-02-01T01:31:26;13.30;;;4.93;;
1885;SDS011;943;51.568;6.998;2023-02-01T01:33:56;12.03;;;4.97;;
1885;SDS011;943;51.568;6.998;2023-02-01T01:36:28;8.17;;;4.20;;
1885;SDS011;943;51.568;6.998;2023-02-01T01:38:56;23.27;;;5.03;;
1885;SDS011;943;51.568;6.998;2023-02-01T01:41:25;15.30;;;5.67;;
1885;SDS011;943;51.568;6.998;2023-02-01T01:44:53;16.47;;;5.70;;
1885;SDS011;943;51.568;6.998;2023-02-01T01:47:43;9.87;;;5.07;;
1885;SDS011;943;51.568;6.998;2023-02-01T01:50:23;22.03;;;5.53;;
1885;SDS011;943;51.568;6.998;2023-02-01T01:53:11;16.73;;;5.70;;
1885;SDS011;943;51.568;6.998;2023-02-01T01:55:49;17.00;;;5.03;;
1885;SDS011;943;51.568;6.998;2023-02-01T01:58:23;16.00;;;6.03;;
1885;SDS011;943;51.568;6.998;2023-02-01T02:00:57;15.37;;;5.40;;
1885;SDS011;943;51.568;6.998;2023-02-01T02:03:30;14.23;;;5.43;;
1885;SDS011;943;51.568;6.998;2023-02-01T02:06:15;11.50;;;5.80;;
1885;SDS011;943;51.568;6.998;2023-02-01T02:09:21;11.60;;;5.10;;
1885;SDS011;943;51.568;6.998;2023-02-01T02:11:50;20.90;;;5.63;;
1885;SDS011;943;51.568;6.998;2023-02-01T02:14:18;16.93;;;5.50;;
1885;SDS011;943;51.568;6.998;2023-02-01T02:17:07;21.33;;;6.50;;
1885;SDS011;943;51.568;6.998;2023-02-01T02:20:45;18.73;;;7.30;;
1885;SDS011;943;51.568;6.998;2023-02-01T02:43:05;12.27;;;4.10;;
1885;SDS011;943;51.568;6.998;2023-02-01T02:46:29;11.87;;;3.90;;
1885;SDS011;943;51.568;6.998;2023-02-01T02:49:34;14.00;;;4.80;;
1885;SDS011;943;51.568;6.998;2023-02-01T02:52:49;17.37;;;4.80;;
1885;SDS011;943;51.568;6.998;2023-02-01T02:55:57;9.17;;;3.70;;
1885;SDS011;943;51.568;6.998;2023-02-01T02:58:47;12.63;;;4.10;;
1885;SDS011;943;51.568;6.998;2023-02-01T03:01:35;14.73;;;4.10;;
1885;SDS011;943;51.568;6.998;2023-02-01T03:04:25;18.13;;;4.87;;
1885;SDS011;943;51.568;6.998;2023-02-01T03:06:54;10.20;;;4.20;;
1885;SDS011;943;51.568;6.998;2023-02-01T03:09:25;12.70;;;4.00;;
1885;SDS011;943;51.568;6.998;2023-02-01T03:12:05;13.17;;;4.57;;
1885;SDS011;943;51.568;6.998;2023-02-01T03:15:03;17.50;;;3.93;;
1885;SDS011;943;51.568;6.998;2023-02-01T03:17:41;9.50;;;3.40;;
1885;SDS011;943;51.568;6.998;2023-02-01T03:20:12;13.67;;;4.20;;
1885;SDS011;943;51.568;6.998;2023-02-01T03:22:46;13.30;;;4.27;;
1885;SDS011;943;51.568;6.998;2023-02-01T03:25:30;13.53;;;4.30;;
1885;SDS011;943;51.568;6.998;2023-02-01T03:28:03;13.10;;;3.73;;
1885;SDS011;943;51.568;6.998;2023-02-01T03:30:43;11.50;;;4.73;;
1885;SDS011;943;51.568;6.998;2023-02-01T03:33:14;17.27;;;3.63;;
1885;SDS011;943;51.568;6.998;2023-02-01T03:35:53;15.00;;;3.80;;
1885;SDS011;943;51.568;6.998;2023-02-01T03:39:31;15.47;;;3.73;;
1885;SDS011;943;51.568;6.998;2023-02-01T03:42:43;19.63;;;4.53;;
1885;SDS011;943;51.568;6.998;2023-02-01T03:45:27;18.40;;;4.13;;
1885;SDS011;943;51.568;6.998;2023-02-01T03:48:10;13.73;;;4.20;;
1885;SDS011;943;51.568;6.998;2023-02-01T03:50:43;11.43;;;4.33;;
1885;SDS011;943;51.568;6.998;2023-02-01T03:53:22;8.47;;;4.93;;
1885;SDS011;943;51.568;6.998;2023-02-01T03:55:54;13.63;;;3.93;;
1885;SDS011;943;51.568;6.998;2023-02-01T03:58:24;8.00;;;3.43;;
1885;SDS011;943;51.568;6.998;2023-02-01T04:00:55;14.70;;;4.77;;
1885;SDS011;943;51.568;6.998;2023-02-01T04:03:30;13.63;;;3.90;;
1885;SDS011;943;51.568;6.998;2023-02-01T04:05:58;20.53;;;4.73;;
1885;SDS011;943;51.568;6.998;2023-02-01T04:08:27;12.40;;;4.43;;
1885;SDS011;943;51.568;6.998;2023-02-01T04:10:55;16.93;;;4.37;;
1885;SDS011;943;51.568;6.998;2023-02-01T04:13:23;11.70;;;4.40;;
1885;SDS011;943;51.568;6.998;2023-02-01T04:15:50;17.97;;;4.37;;
1885;SDS011;943;51.568;6.998;2023-02-01T04:18:18;20.77;;;4.67;;
1885;SDS011;943;51.568;6.998;2023-02-01T04:20:46;15.23;;;4.10;;
1885;SDS011;943;51.568;6.998;2023-02-01T04:23:13;12.63;;;3.63;;
1885;SDS011;943;51.568;6.998;2023-02-01T04:25:42;18.23;;;5.20;;
1885;SDS011;943;51.568;6.998;2023-02-01T04:28:09;18.00;;;4.30;;
1885;SDS011;943;51.568;6.998;2023-02-01T04:30:37;24.47;;;5.50;;
1885;SDS011;943;51.568;6.998;2023-02-01T04:33:06;14.80;;;3.90;;
1885;SDS011;943;51.568;6.998;2023-02-01T04:35:34;20.70;;;5.40;;
1885;SDS011;943;51.568;6.998;2023-02-01T04:38:02;16.63;;;4.67;;
1885;SDS011;943;51.568;6.998;2023-02-01T04:40:29;21.50;;;6.70;;
1885;SDS011;943;51.568;6.998;2023-02-01T04:42:57;19.17;;;4.90;;
1885;SDS011;943;51.568;6.998;2023-02-01T04:45:27;21.83;;;4.13;;
1885;SDS011;943;51.568;6.998;2023-02-01T04:47:55;17.07;;;5.60;;
1885;SDS011;943;51.568;6.998;2023-02-01T04:50:23;13.53;;;4.50;;
1885;SDS011;943;51.568;6.998;2023-02-01T04:52:51;16.40;;;3.93;;
1885;SDS011;943;51.568;6.998;2023-02-01T04:55:18;15.87;;;4.83;;
1885;SDS011;943;51.568;6.998;2023-02-01T04:57:46;15.37;;;4.63;;
1885;SDS011;943;51.568;6.998;2023-02-01T05:00:13;10.53;;;4.63;;
1885;SDS011;943;51.568;6.998;2023-02-01T05:02:42;19.30;;;4.10;;
1885;SDS011;943;51.568;6.998;2023-02-01T05:05:10;13.40;;;4.90;;
1885;SDS011;943;51.568;6.998;2023-02-01T05:07:37;20.47;;;4.70;;
1885;SDS011;943;51.568;6.998;2023-02-01T05:10:05;21.67;;;6.17;;
1885;SDS011;943;51.568;6.998;2023-02-01T05:12:34;11.47;;;4.37;;
1885;SDS011;943;51.568;6.998;2023-02-01T05:15:35;13.87;;;4.57;;
1885;SDS011;943;51.568;6.998;2023-02-01T05:18:02;26.00;;;5.50;;
1885;SDS011;943;51.568;6.998;2023-02-01T05:20:30;15.43;;;4.90;;
1885;SDS011;943;51.568;6.998;2023-02-01T05:22:58;12.20;;;4.30;;
1885;SDS011;943;51.568;6.998;2023-02-01T05:25:26;12.77;;;4.57;;
1885;SDS011;943;51.568;6.998;2023-02-01T05:27:53;15.60;;;4.60;;
1885;SDS011;943;51.568;6.998;2023-02-01T05:30:21;12.43;;;3.90;;
1885;SDS011;943;51.568;6.998;2023-02-01T05:32:50;14.97;;;4.27;;
1885;SDS011;943;51.568;6.998;2023-02-01T05:35:19;20.93;;;5.17;;
1885;SDS011;943;51.568;6.998;2023-02-01T05:37:47;17.40;;;4.87;;
1885;SDS011;943;51.568;6.998;2023-02-01T05:40:15;15.90;;;5.00;;
1885;SDS011;943;51.568;6.998;2023-02-01T05:42:43;18.60;;;4.63;;
1885;SDS011;943;51.568;6.998;2023-02-01T05:45:11;12.20;;;4.30;;
1885;SDS011;943;51.568;6.998;2023-02-01T05:47:39;17.20;;;3.97;;
1885;SDS011;943;51.568;6.998;2023-02-01T05:50:07;13.93;;;4.13;;
1885;SDS011;943;51.568;6.998;2023-02-01T05:52:35;13.90;;;4.73;;
1885;SDS011;943;51.568;6.998;2023-02-01T05:55:03;17.57;;;6.13;;
1885;SDS011;943;51.568;6.998;2023-02-01T05:57:31;22.47;;;4.13;;
1885;SDS011;943;51.568;6.998;2023-02-01T05:59:59;18.30;;;4.53;;
1885;SDS011;943;51.568;6.998;2023-02-01T06:02:37;21.60;;;5.47;;
1885;SDS011;943;51.568;6.998;2023-02-01T06:05:05;15.13;;;4.97;;
1885;SDS011;943;51.568;6.998;2023-02-01T06:07:34;28.53;;;6.60;;
1885;SDS011;943;51.568;6.998;2023-02-01T06:10:03;21.67;;;4.23;;
1885;SDS011;943;51.568;6.998;2023-02-01T06:12:31;26.17;;;6.27;;
1885;SDS011;943;51.568;6.998;2023-02-01T06:14:59;24.23;;;5.40;;
1885;SDS011;943;51.568;6.998;2023-02-01T06:17:27;20.97;;;3.70;;
1885;SDS011;943;51.568;6.998;2023-02-01T06:19:55;28.20;;;5.90;;
1885;SDS011;943;51.568;6.998;2023-02-01T06:22:22;14.00;;;4.03;;
1885;SDS011;943;51.568;6.998;2023-02-01T06:24:50;23.53;;;4.03;;
1885;SDS011;943;51.568;6.998;2023-02-01T06:27:18;23.47;;;5.47;;
1885;SDS011;943;51.568;6.998;2023-02-01T06:29:45;20.83;;;5.20;;
1885;SDS011;943;51.568;6.998;2023-02-01T06:32:13;28.67;;;5.93;;
1885;SDS011;943;51.568;6.998;2023-02-01T06:34:40;18.43;;;4.63;;
1885;SDS011;943;51.568;6.998;2023-02-01T06:37:09;16.47;;;6.50;;
1885;SDS011;943;51.568;6.998;2023-02-01T06:39:37;17.33;;;5.10;;
1885;SDS011;943;51.568;6.998;2023-02-01T06:42:05;15.67;;;4.47;;
1885;SDS011;943;51.568;6.998;2023-02-01T06:44:33;19.00;;;4.33;;
1885;SDS011;943;51.568;6.998;2023-02-01T06:47:00;14.53;;;5.30;;
1885;SDS011;943;51.568;6.998;2023-02-01T06:49:34;16.63;;;5.57;;
1885;SDS011;943;51.568;6.998;2023-02-01T06:52:02;26.50;;;5.07;;
1885;SDS011;943;51.568;6.998;2023-02-01T06:54:30;17.10;;;5.27;;
1885;SDS011;943;51.568;6.998;2023-02-01T06:57:00;21.13;;;4.67;;
1885;SDS011;943;51.568;6.998;2023-02-01T06:59:27;17.90;;;4.90;;
1885;SDS011;943;51.568;6.998;2023-02-01T07:01:55;17.93;;;5.03;;
1885;SDS011;943;51.568;6.998;2023-02-01T07:04:23;17.50;;;6.43;;
1885;SDS011;943;51.568;6.998;2023-02-01T07:06:52;18.97;;;4.90;;
1885;SDS011;943;51.568;6.998;2023-02-01T07:09:20;17.57;;;5.70;;
1885;SDS011;943;51.568;6.998;2023-02-01T07:11:48;20.07;;;5.23;;
1885;SDS011;943;51.568;6.998;2023-02-01T07:14:15;13.57;;;4.90;;
1885;SDS011;943;51.568;6.998;2023-02-01T07:16:43;12.47;;;4.07;;
1885;SDS011;943;51.568;6.998;2023-02-01T07:19:11;30.90;;;5.20;;
1885;SDS011;943;51.568;6.998;2023-02-01T07:21:38;15.17;;;5.53;;
1885;SDS011;943;51.568;6.998;2023-02-01T07:24:06;17.67;;;4.83;;
1885;SDS011;943;51.568;6.998;2023-02-01T07:26:34;11.73;;;4.30;;
1885;SDS011;943;51.568;6.998;2023-02-01T07:29:01;13.63;;;4.70;;
1885;SDS011;943;51.568;6.998;2023-02-01T07:31:29;16.83;;;4.80;;
1885;SDS011;943;51.568;6.998;2023-02-01T07:33:57;19.73;;;6.20;;
1885;SDS011;943;51.568;6.998;2023-02-01T07:36:25;23.80;;;7.03;;
1885;SDS011;943;51.568;6.998;2023-02-01T07:38:52;13.23;;;4.33;;
1885;SDS011;943;51.568;6.998;2023-02-01T07:41:22;18.50;;;5.00;;
1885;SDS011;943;51.568;6.998;2023-02-01T07:43:52;20.20;;;5.30;;
1885;SDS011;943;51.568;6.998;2023-02-01T07:46:20;19.23;;;4.93;;
1885;SDS011;943;51.568;6.998;2023-02-01T07:48:48;16.60;;;5.53;;
1885;SDS011;943;51.568;6.998;2023-02-01T07:51:16;14.97;;;4.87;;
1885;SDS011;943;51.568;6.998;2023-02-01T07:53:44;19.47;;;5.53;;
1885;SDS011;943;51.568;6.998;2023-02-01T07:56:18;15.50;;;4.80;;
1885;SDS011;943;51.568;6.998;2023-02-01T07:58:49;23.93;;;5.67;;
1885;SDS011;943;51.568;6.998;2023-02-01T08:01:23;21.00;;;5.37;;
1885;SDS011;943;51.568;6.998;2023-02-01T08:03:55;18.97;;;5.73;;
1885;SDS011;943;51.568;6.998;2023-02-01T08:06:29;16.80;;;5.63;;
1885;SDS011;943;51.568;6.998;2023-02-01T08:09:01;17.33;;;5.20;;
1885;SDS011;943;51.568;6.998;2023-02-01T08:11:31;21.40;;;5.93;;
1885;SDS011;943;51.568;6.998;2023-02-01T08:13:59;16.70;;;5.73;;
1885;SDS011;943;51.568;6.998;2023-02-01T08:16:27;14.50;;;5.17;;
1885;SDS011;943;51.568;6.998;2023-02-01T08:18:55;22.13;;;5.80;;
1885;SDS011;943;51.568;6.998;2023-02-01T08:21:24;17.60;;;4.57;;
1885;SDS011;943;51.568;6.998;2023-02-01T08:24:04;23.57;;;6.87;;
1885;SDS011;943;51.568;6.998;2023-02-01T08:26:36;16.03;;;5.77;;
1885;SDS011;943;51.568;6.998;2023-02-01T08:29:05;25.00;;;6.53;;
1885;SDS011;943;51.568;6.998;2023-02-01T08:31:37;24.83;;;6.57;;
1885;SDS011;943;51.568;6.998;2023-02-01T08:34:07;13.20;;;5.80;;
1885;SDS011;943;51.568;6.998;2023-02-01T08:36:36;15.80;;;5.23;;
1885;SDS011;943;51.568;6.998;2023-02-01T08:39:04;18.10;;;4.70;;
1885;SDS011;943;51.568;6.998;2023-02-01T08:41:36;21.43;;;6.00;;
1885;SDS011;943;51.568;6.998;2023-02-01T08:44:04;16.03;;;5.30;;
1885;SDS011;943;51.568;6.998;2023-02-01T08:46:32;22.73;;;6.17;;
1885;SDS011;943;51.568;6.998;2023-02-01T08:49:00;23.60;;;5.53;;
1885;SDS011;943;51.568;6.998;2023-02-01T08:51:27;21.40;;;6.83;;
1885;SDS011;943;51.568;6.998;2023-02-01T08:53:55;15.20;;;5.20;;
1885;SDS011;943;51.568;6.998;2023-02-01T08:56:23;17.77;;;5.57;;
1885;SDS011;943;51.568;6.998;2023-02-01T08:58:51;21.20;;;5.47;;
1885;SDS011;943;51.568;6.998;2023-02-01T09:01:19;14.33;;;5.63;;
1885;SDS011;943;51.568;6.998;2023-02-01T09:03:47;16.90;;;4.93;;
1885;SDS011;943;51.568;6.998;2023-02-01T09:06:15;20.77;;;6.80;;
1885;SDS011;943;51.568;6.998;2023-02-01T09:08:44;25.33;;;5.70;;
1885;SDS011;943;51.568;6.998;2023-02-01T09:11:13;16.43;;;5.70;;
1885;SDS011;943;51.568;6.998;2023-02-01T09:13:46;18.07;;;5.63;;
1885;SDS011;943;51.568;6.998;2023-02-01T09:16:15;22.77;;;6.97;;
1885;SDS011;943;51.568;6.998;2023-02-01T09:18:43;14.90;;;4.47;;
1885;SDS011;943;51.568;6.998;2023-02-01T09:21:27;21.90;;;5.20;;
1885;SDS011;943;51.568;6.998;2023-02-01T09:23:55;14.73;;;4.70;;
1885;SDS011;943;51.568;6.998;2023-02-01T09:26:23;16.00;;;5.70;;
1885;SDS011;943;51.568;6.998;2023-02-01T09:28:58;20.00;;;8.00;;
1885;SDS011;943;51.568;6.998;2023-02-01T09:31:27;15.53;;;5.33;;
1885;SDS011;943;51.568;6.998;2023-02-01T09:33:55;23.23;;;4.97;;
1885;SDS011;943;51.568;6.998;2023-02-01T09:36:23;16.53;;;5.93;;
1885;SDS011;943;51.568;6.998;2023-02-01T09:38:50;17.73;;;6.50;;
1885;SDS011;943;51.568;6.998;2023-02-01T09:48:38;25.00;;;7.27;;
1885;SDS011;943;51.568;6.998;2023-02-01T09:51:29;20.83;;;5.87;;
1885;SDS011;943;51.568;6.998;2023-02-01T09:54:15;25.90;;;6.20;;
1885;SDS011;943;51.568;6.998;2023-02-01T09:56:53;15.50;;;5.90;;
1885;SDS011;943;51.568;6.998;2023-02-01T10:02:26;13.37;;;5.23;;
1885;SDS011;943;51.568;6.998;2023-02-01T10:04:57;23.43;;;8.60;;
1885;SDS011;943;51.568;6.998;2023-02-01T10:10:30;15.03;;;6.20;;
1885;SDS011;943;51.568;6.998;2023-02-01T10:13:28;21.50;;;5.50;;
1885;SDS011;943;51.568;6.998;2023-02-01T10:16:51;28.63;;;6.90;;
1885;SDS011;943;51.568;6.998;2023-02-01T10:20:38;21.33;;;6.60;;
1885;SDS011;943;51.568;6.998;2023-02-01T10:27:25;20.10;;;6.70;;
1885;SDS011;943;51.568;6.998;2023-02-01T10:30:25;19.17;;;5.50;;
1885;SDS011;943;51.568;6.998;2023-02-01T10:36:01;23.63;;;5.60;;
1885;SDS011;943;51.568;6.998;2023-02-01T10:38:48;23.30;;;6.40;;
1885;SDS011;943;51.568;6.998;2023-02-01T10:41:17;18.83;;;6.87;;
1885;SDS011;943;51.568;6.998;2023-02-01T10:43:51;21.27;;;4.80;;
1885;SDS011;943;51.568;6.998;2023-02-01T10:46:25;17.03;;;5.57;;
1885;SDS011;943;51.568;6.998;2023-02-01T10:48:54;17.97;;;5.40;;
1885;SDS011;943;51.568;6.998;2023-02-01T10:51:28;14.27;;;4.97;;
1885;SDS011;943;51.568;6.998;2023-02-01T10:54:18;20.07;;;5.23;;
1885;SDS011;943;51.568;6.998;2023-02-01T10:57:00;15.73;;;4.63;;
1885;SDS011;943;51.568;6.998;2023-02-01T10:59:29;19.23;;;5.93;;
1885;SDS011;943;51.568;6.998;2023-02-01T11:02:01;11.30;;;4.80;;
1885;SDS011;943;51.568;6.998;2023-02-01T11:05:04;18.53;;;6.67;;
1885;SDS011;943;51.568;6.998;2023-02-01T11:07:39;17.00;;;6.10;;
1885;SDS011;943;51.568;6.998;2023-02-01T11:10:35;14.57;;;5.17;;
1885;SDS011;943;51.568;6.998;2023-02-01T11:13:13;19.40;;;4.53;;
1885;SDS011;943;51.568;6.998;2023-02-01T11:15:45;17.07;;;5.37;;
1885;SDS011;943;51.568;6.998;2023-02-01T11:18:30;20.97;;;4.57;;
1885;SDS011;943;51.568;6.998;2023-02-01T11:21:05;13.37;;;5.50;;
1885;SDS011;943;51.568;6.998;2023-02-01T11:23:41;19.73;;;6.80;;
1885;SDS011;943;51.568;6.998;2023-02-01T11:29:10;21.27;;;5.97;;
1885;SDS011;943;51.568;6.998;2023-02-01T11:31:59;22.00;;;5.53;;
1885;SDS011;943;51.568;6.998;2023-02-01T11:35:05;16.40;;;5.67;;
1885;SDS011;943;51.568;6.998;2023-02-01T11:37:53;18.03;;;5.37;;
1885;SDS011;943;51.568;6.998;2023-02-01T11:40:49;19.77;;;4.73;;
1885;SDS011;943;51.568;6.998;2023-02-01T11:43:27;24.20;;;6.27;;
1885;SDS011;943;51.568;6.998;2023-02-01T11:46:01;19.93;;;6.47;;
1885;SDS011;943;51.568;6.998;2023-02-01T11:48:52;12.60;;;4.93;;
1885;SDS011;943;51.568;6.998;2023-02-01T11:55:06;16.60;;;7.00;;
1885;SDS011;943;51.568;6.998;2023-02-01T12:05:35;24.17;;;6.97;;
1885;SDS011;943;51.568;6.998;2023-02-01T12:12:10;15.80;;;5.83;;
1885;SDS011;943;51.568;6.998;2023-02-01T12:21:54;24.53;;;6.80;;
1885;SDS011;943;51.568;6.998;2023-02-01T12:31:41;19.87;;;6.97;;
1885;SDS011;943;51.568;6.998;2023-02-01T12:41:23;21.03;;;5.00;;
1885;SDS011;943;51.568;6.998;2023-02-01T12:44:43;21.53;;;5.53;;
1885;SDS011;943;51.568;6.998;2023-02-01T12:47:30;21.80;;;5.77;;
1885;SDS011;943;51.568;6.998;2023-02-01T12:50:28;13.90;;;4.90;;
1885;SDS011;943;51.568;6.998;2023-02-01T12:56:30;15.40;;;4.30;;
1885;SDS011;943;51.568;6.998;2023-02-01T12:59:43;17.30;;;4.57;;
1885;SDS011;943;51.568;6.998;2023-02-01T13:12:43;13.00;;;3.83;;
1885;SDS011;943;51.568;6.998;2023-02-01T13:18:45;11.10;;;4.60;;
1885;SDS011;943;51.568;6.998;2023-02-01T13:21:26;19.63;;;4.27;;
1885;SDS011;943;51.568;6.998;2023-02-01T13:24:09;22.67;;;4.57;;
1885;SDS011;943;51.568;6.998;2023-02-01T13:27:18;14.60;;;4.80;;
1885;SDS011;943;51.568;6.998;2023-02-01T13:29:55;10.03;;;3.83;;
1885;SDS011;943;51.568;6.998;2023-02-01T13:46:02;16.50;;;5.33;;
1885;SDS011;943;51.568;6.998;2023-02-01T13:48:53;18.13;;;3.77;;
1885;SDS011;943;51.568;6.998;2023-02-01T13:54:31;20.10;;;4.93;;
1885;SDS011;943;51.568;6.998;2023-02-01T13:57:14;12.90;;;4.67;;
1885;SDS011;943;51.568;6.998;2023-02-01T14:00:08;16.53;;;3.63;;
1885;SDS011;943;51.568;6.998;2023-02-01T14:03:19;19.97;;;4.93;;
1885;SDS011;943;51.568;6.998;2023-02-01T14:11:41;13.70;;;4.87;;
1885;SDS011;943;51.568;6.998;2023-02-01T14:19:20;17.57;;;4.40;;
1885;SDS011;943;51.568;6.998;2023-02-01T14:24:54;12.20;;;4.70;;
1885;SDS011;943;51.568;6.998;2023-02-01T14:27:28;12.87;;;4.10;;
1885;SDS011;943;51.568;6.998;2023-02-01T14:30:06;17.93;;;3.80;;
1885;SDS011;943;51.568;6.998;2023-02-01T14:32:43;13.83;;;4.27;;
1885;SDS011;943;51.568;6.998;2023-02-01T14:35:25;16.57;;;4.07;;
1885;SDS011;943;51.568;6.998;2023-02-01T14:37:59;14.30;;;3.73;;
1885;SDS011;943;51.568;6.998;2023-02-01T14:40:30;20.43;;;5.17;;
1885;SDS011;943;51.568;6.998;2023-02-01T14:43:00;16.77;;;5.57;;
1885;SDS011;943;51.568;6.998;2023-02-01T14:55:52;10.60;;;3.83;;
1885;SDS011;943;51.568;6.998;2023-02-01T14:59:00;17.53;;;4.33;;
1885;SDS011;943;51.568;6.998;2023-02-01T15:01:48;16.70;;;4.33;;
1885;SDS011;943;51.568;6.998;2023-02-01T15:04:25;18.57;;;4.50;;
1885;SDS011;943;51.568;6.998;2023-02-01T15:06:55;19.87;;;5.03;;
1885;SDS011;943;51.568;6.998;2023-02-01T15:09:44;14.13;;;4.13;;
1885;SDS011;943;51.568;6.998;2023-02-01T15:12:16;12.67;;;4.37;;
1885;SDS011;943;51.568;6.998;2023-02-01T15:18:00;15.60;;;3.93;;
1885;SDS011;943;51.568;6.998;2023-02-01T15:20:30;19.43;;;4.63;;
1885;SDS011;943;51.568;6.998;2023-02-01T15:23:01;12.83;;;5.23;;
1885;SDS011;943;51.568;6.998;2023-02-01T15:25:44;12.57;;;4.67;;
1885;SDS011;943;51.568;6.998;2023-02-01T15:28:14;17.83;;;3.53;;
1885;SDS011;943;51.568;6.998;2023-02-01T15:33:32;14.73;;;3.80;;
1885;SDS011;943;51.568;6.998;2023-02-01T15:38:42;14.93;;;4.07;;
1885;SDS011;943;51.568;6.998;2023-02-01T15:41:15;13.33;;;4.27;;
1885;SDS011;943;51.568;6.998;2023-02-01T15:46:34;23.87;;;4.70;;
1885;SDS011;943;51.568;6.998;2023-02-01T15:52:13;11.33;;;4.83;;
1885;SDS011;943;51.568;6.998;2023-02-01T15:55:20;14.60;;;4.17;;
1885;SDS011;943;51.568;6.998;2023-02-01T15:58:14;23.80;;;5.47;;
1885;SDS011;943;51.568;6.998;2023-02-01T16:01:10;18.87;;;4.93;;
1885;SDS011;943;51.568;6.998;2023-02-01T16:03:41;17.23;;;4.70;;
1885;SDS011;943;51.568;6.998;2023-02-01T16:08:52;9.47;;;4.30;;
1885;SDS011;943;51.568;6.998;2023-02-01T16:11:41;17.80;;;4.00;;
1885;SDS011;943;51.568;6.998;2023-02-01T16:14:26;18.17;;;4.10;;
1885;SDS011;943;51.568;6.998;2023-02-01T16:16:56;16.37;;;4.33;;
1885;SDS011;943;51.568;6.998;2023-02-01T16:19:25;10.30;;;3.70;;
1885;SDS011;943;51.568;6.998;2023-02-01T16:21:55;25.27;;;4.80;;
1885;SDS011;943;51.568;6.998;2023-02-01T16:24:24;12.43;;;3.83;;
1885;SDS011;943;51.568;6.998;2023-02-01T16:26:52;17.40;;;4.20;;
1885;SDS011;943;51.568;6.998;2023-02-01T16:29:20;15.70;;;4.80;;
1885;SDS011;943;51.568;6.998;2023-02-01T16:31:48;12.20;;;3.90;;
1885;SDS011;943;51.568;6.998;2023-02-01T16:34:17;15.73;;;4.13;;
1885;SDS011;943;51.568;6.998;2023-02-01T16:36:48;13.77;;;4.20;;
1885;SDS011;943;51.568;6.998;2023-02-01T16:39:23;13.27;;;5.10;;
1885;SDS011;943;51.568;6.998;2023-02-01T16:41:54;17.33;;;4.70;;
1885;SDS011;943;51.568;6.998;2023-02-01T16:44:21;17.13;;;4.20;;
1885;SDS011;943;51.568;6.998;2023-02-01T16:46:49;11.27;;;5.13;;
1885;SDS011;943;51.568;6.998;2023-02-01T16:49:22;18.07;;;4.30;;
1885;SDS011;943;51.568;6.998;2023-02-01T16:51:54;15.67;;;4.10;;
1885;SDS011;943;51.568;6.998;2023-02-01T16:54:25;16.93;;;4.93;;
1885;SDS011;943;51.568;6.998;2023-02-01T16:56:53;18.87;;;5.63;;
1885;SDS011;943;51.568;6.998;2023-02-01T16:59:22;24.03;;;6.27;;
1885;SDS011;943;51.568;6.998;2023-02-01T17:01:49;18.23;;;5.10;;
1885;SDS011;943;51.568;6.998;2023-02-01T17:04:17;10.50;;;3.47;;
1885;SDS011;943;51.568;6.998;2023-02-01T17:06:47;11.53;;;5.20;;
1885;SDS011;943;51.568;6.998;2023-02-01T17:09:15;11.60;;;4.03;;
1885;SDS011;943;51.568;6.998;2023-02-01T17:11:43;10.50;;;4.13;;
1885;SDS011;943;51.568;6.998;2023-02-01T17:14:17;11.80;;;4.50;;
1885;SDS011;943;51.568;6.998;2023-02-01T17:16:48;17.70;;;6.50;;
1885;SDS011;943;51.568;6.998;2023-02-01T17:19:17;17.00;;;7.57;;
1885;SDS011;943;51.568;6.998;2023-02-01T17:21:50;10.43;;;6.03;;
1885;SDS011;943;51.568;6.998;2023-02-01T17:24:26;14.77;;;7.07;;
1885;SDS011;943;51.568;6.998;2023-02-01T17:27:13;19.60;;;6.97;;
1885;SDS011;943;51.568;6.998;2023-02-01T17:29:43;23.80;;;8.20;;
1885;SDS011;943;51.568;6.998;2023-02-01T17:32:19;19.03;;;8.30;;
1885;SDS011;943;51.568;6.998;2023-02-01T17:34:52;17.00;;;8.70;;
1885;SDS011;943;51.568;6.998;2023-02-01T17:37:22;24.00;;;9.03;;
1885;SDS011;943;51.568;6.998;2023-02-01T17:40:02;24.80;;;7.97;;
1885;SDS011;943;51.568;6.998;2023-02-01T17:42:30;28.47;;;9.10;;
1885;SDS011;943;51.568;6.998;2023-02-01T17:45:10;32.50;;;8.30;;
1885;SDS011;943;51.568;6.998;2023-02-01T17:48:19;29.03;;;7.93;;
1885;SDS011;943;51.568;6.998;2023-02-01T17:50:49;16.97;;;7.53;;
1885;SDS011;943;51.568;6.998;2023-02-01T17:53:20;29.80;;;8.03;;
1885;SDS011;943;51.568;6.998;2023-02-01T17:55:50;32.30;;;8.10;;
1885;SDS011;943;51.568;6.998;2023-02-01T17:58:19;25.57;;;8.40;;
1885;SDS011;943;51.568;6.998;2023-02-01T18:00:47;28.77;;;7.13;;
1885;SDS011;943;51.568;6.998;2023-02-01T18:03:21;24.07;;;7.33;;
1885;SDS011;943;51.568;6.998;2023-02-01T18:05:59;30.47;;;6.77;;
1885;SDS011;943;51.568;6.998;2023-02-01T18:08:28;32.90;;;9.10;;
1885;SDS011;943;51.568;6.998;2023-02-01T18:10:59;18.23;;;8.17;;
1885;SDS011;943;51.568;6.998;2023-02-01T18:13:28;22.57;;;7.30;;
1885;SDS011;943;51.568;6.998;2023-02-01T18:15:58;17.47;;;7.10;;
1885;SDS011;943;51.568;6.998;2023-02-01T18:18:27;21.07;;;8.30;;
1885;SDS011;943;51.568;6.998;2023-02-01T18:20:56;16.87;;;7.60;;
1885;SDS011;943;51.568;6.998;2023-02-01T18:23:25;20.53;;;7.43;;
1885;SDS011;943;51.568;6.998;2023-02-01T18:25:53;7.50;;;2.03;;
1885;SDS011;943;51.568;6.998;2023-02-01T18:28:21;4.30;;;2.23;;
1885;SDS011;943;51.568;6.998;2023-02-01T18:30:49;6.97;;;2.20;;
1885;SDS011;943;51.568;6.998;2023-02-01T18:33:18;8.77;;;2.60;;
1885;SDS011;943;51.568;6.998;2023-02-01T18:35:47;7.13;;;3.10;;
1885;SDS011;943;51.568;6.998;2023-02-01T18:38:16;8.03;;;2.43;;
1885;SDS011;943;51.568;6.998;2023-02-01T18:40:48;10.80;;;2.70;;